Terminal Aerodrome Forecast
Issued by NWS Paducah, KY

Home | Current Version | Previous Version | Text Only | Print | Product List | Glossary On
Versions: 1 2 3 4 5 6 7 8 9 10 11 12 13 14 15 16 17
000
FTUS43 KPAH 241127
TAFPAH
TAF
KPAH 241127Z 2412/2512 12006KT P6SM BKN090
     FM241600 14007KT P6SM BKN080
     FM250000 15007KT P6SM BKN040
     FM250700 16010KT P6SM OVC015 PROB30 2507/2511 3SM -TSRA
      BKN007CB=

USA.gov is the U.S. government's official web portal to all federal, state and local government web resources and services.